Time;durP1;ratioP1;P1;durP2;ratioP2;P2;SDS_P1;SDS_P2;PMS_P1;PMS_P2;Temp;Humidity;BMP_temperature;BMP_pressure;BME280_temperature;BME280_humidity;BME280_pressure;Samples;Min_cycle;Max_cycle;Signal;HPM_P1;HPM_P2
2022/02/11 00:00:25;;;;;;;;;;;22.50;30.50;;;;;;5088917;28;20011;-63
2022/02/11 00:05:47;;;;;;;;;;;22.50;30.50;;;;;;5090644;28;20400;-63
2022/02/11 00:11:39;;;;;;;;;;;22.50;30.50;;;;;;5088492;28;19925;-63
2022/02/11 00:14:07;;;;;;;;;;;22.50;30.50;;;;;;5088312;28;19982;-62
2022/02/11 00:16:35;;;;;;;;;;;22.50;30.50;;;;;;5071662;28;19970;-63
2022/02/11 00:19:06;;;;;;;;;;;22.50;30.60;;;;;;5087867;28;19924;-63
2022/02/11 00:21:33;;;;;;;;;;;22.50;30.60;;;;;;5071183;28;20155;-62
2022/02/11 00:24:00;;;;;;;;;;;22.50;30.60;;;;;;5087718;28;20118;-63
2022/02/11 00:26:33;;;;;;;;;;;22.50;30.60;;;;;;5090109;28;20239;-63
2022/02/11 00:32:07;;;;;;;;;;;22.50;30.60;;;;;;5088100;28;20118;-63
2022/02/11 00:34:44;;;;;;;;;;;22.50;30.60;;;;;;5089271;28;20006;-63
2022/02/11 00:37:18;;;;;;;;;;;22.40;30.60;;;;;;5088305;28;19928;-63
2022/02/11 00:43:31;;;;;;;;;;;22.40;30.60;;;;;;5071679;28;19924;-63
2022/02/11 00:45:42;;;;;;;;;;;22.40;30.60;;;;;;5089757;28;20004;-63
2022/02/11 01:02:43;;;;;;;;;;;22.40;30.70;;;;;;5086122;28;20229;-63
2022/02/11 01:05:10;;;;;;;;;;;22.40;30.70;;;;;;5089633;28;20342;-63
2022/02/11 01:07:37;;;;;;;;;;;22.40;30.70;;;;;;5087164;28;19977;-62
2022/02/11 01:10:04;;;;;;;;;;;22.40;30.70;;;;;;5089000;28;19985;-62
2022/02/11 01:12:31;;;;;;;;;;;22.40;30.70;;;;;;5068189;28;20078;-62
2022/02/11 01:14:59;;;;;;;;;;;22.40;30.70;;;;;;5089221;28;20303;-63
2022/02/11 01:17:35;;;;;;;;;;;22.40;30.70;;;;;;5087464;28;20019;-63
2022/02/11 01:20:22;;;;;;;;;;;22.40;30.70;;;;;;5087100;28;19976;-63
2022/02/11 01:26:00;;;;;;;;;;;22.40;30.70;;;;;;5089672;28;20045;-63
2022/02/11 01:32:03;;;;;;;;;;;22.40;30.70;;;;;;5087761;28;19935;-63
2022/02/11 01:34:48;;;;;;;;;;;22.40;30.70;;;;;;5088323;28;19924;-63
2022/02/11 01:37:27;;;;;;;;;;;22.40;30.70;;;;;;5087757;28;20453;-63
2022/02/11 01:43:44;;;;;;;;;;;22.40;30.70;;;;;;5086284;28;19959;-63
2022/02/11 01:45:56;;;;;;;;;;;22.40;30.70;;;;;;5089500;28;20066;-63
2022/02/11 02:03:25;;;;;;;;;;;22.30;30.80;;;;;;5071156;28;19924;-62
2022/02/11 02:06:01;;;;;;;;;;;22.30;30.80;;;;;;5089232;28;19975;-63
2022/02/11 02:14:23;;;;;;;;;;;22.30;30.80;;;;;;5086551;28;19924;-62
2022/02/11 02:17:44;;;;;;;;;;;22.30;30.80;;;;;;5088378;28;19985;-63
2022/02/11 02:25:15;;;;;;;;;;;22.30;30.80;;;;;;5091582;28;19934;-63
2022/02/11 02:27:59;;;;;;;;;;;22.30;30.80;;;;;;5089968;28;19975;-62
2022/02/11 02:33:44;;;;;;;;;;;22.30;30.80;;;;;;5074351;28;19928;-66
2022/02/11 02:36:22;;;;;;;;;;;22.30;30.80;;;;;;5092469;28;19928;-63
2022/02/11 02:56:36;;;;;;;;;;;22.30;30.80;;;;;;5092069;28;20006;-63
2022/02/11 02:56:52;;;;;;;;;;;22.30;30.80;;;;;;5091607;28;19920;-63
2022/02/11 02:59:42;;;;;;;;;;;22.30;30.80;;;;;;5090808;28;20365;-63
2022/02/11 03:14:30;;;;;;;;;;;22.30;30.80;;;;;;5089113;28;20023;-63
2022/02/11 03:17:02;;;;;;;;;;;22.30;30.80;;;;;;5091926;28;20434;-63
2022/02/11 03:53:59;;;;;;;;;;;22.20;30.90;;;;;;5087773;28;20018;-62
2022/02/11 03:56:48;;;;;;;;;;;22.20;31.00;;;;;;5090908;28;19924;-62
2022/02/11 04:59:54;;;;;;;;;;;22.20;31.10;;;;;;5071730;28;19978;-63
2022/02/11 05:02:25;;;;;;;;;;;22.20;31.20;;;;;;5071399;28;20023;-62
2022/02/11 05:04:54;;;;;;;;;;;22.10;31.20;;;;;;5088827;28;19954;-62
2022/02/11 05:07:21;;;;;;;;;;;22.10;31.20;;;;;;5087614;28;19923;-62
2022/02/11 05:09:48;;;;;;;;;;;22.10;31.20;;;;;;5089127;28;20367;-62
2022/02/11 05:12:15;;;;;;;;;;;22.10;31.20;;;;;;5087214;28;19924;-62
2022/02/11 05:14:42;;;;;;;;;;;22.10;31.20;;;;;;5088641;28;20437;-63
2022/02/11 05:17:09;;;;;;;;;;;22.10;31.20;;;;;;5087998;28;19928;-63
2022/02/11 05:22:58;;;;;;;;;;;22.10;31.20;;;;;;5085410;28;19919;-63
2022/02/11 05:25:25;;;;;;;;;;;22.10;31.20;;;;;;5089141;28;19924;-62
2022/02/11 05:27:55;;;;;;;;;;;22.10;31.30;;;;;;5085247;28;19928;-62
2022/02/11 05:30:22;;;;;;;;;;;22.10;31.30;;;;;;5089272;28;19928;-63
2022/02/11 05:32:49;;;;;;;;;;;22.10;31.30;;;;;;5085577;28;20023;-62
2022/02/11 05:38:48;;;;;;;;;;;22.10;31.30;;;;;;5083691;28;19926;-62
2022/02/11 05:41:15;;;;;;;;;;;22.10;31.30;;;;;;5088883;28;20006;-62
2022/02/11 05:43:42;;;;;;;;;;;22.10;31.30;;;;;;5086528;28;20048;-62
2022/02/11 05:46:09;;;;;;;;;;;22.10;31.40;;;;;;5089435;28;20292;-62
2022/02/11 05:48:39;;;;;;;;;;;22.10;31.30;;;;;;5085765;28;20181;-62
2022/02/11 05:51:10;;;;;;;;;;;22.10;31.30;;;;;;5088911;28;20293;-62
2022/02/11 05:53:37;;;;;;;;;;;22.10;31.40;;;;;;5082493;28;20181;-62
2022/02/11 05:56:04;;;;;;;;;;;22.10;31.40;;;;;;5089626;28;19978;-62
2022/02/11 05:58:31;;;;;;;;;;;22.10;31.40;;;;;;5088427;28;19928;-62
2022/02/11 06:00:58;;;;;;;;;;;22.10;31.40;;;;;;5091911;28;20231;-62
2022/02/11 06:03:25;;;;;;;;;;;22.10;31.30;;;;;;5088622;28;20381;-62
2022/02/11 06:05:52;;;;;;;;;;;22.10;31.40;;;;;;5093195;28;19924;-62
2022/02/11 06:08:19;;;;;;;;;;;22.10;31.30;;;;;;5087208;28;20015;-62
2022/02/11 06:10:47;;;;;;;;;;;22.10;31.20;;;;;;5092101;28;19971;-62
2022/02/11 06:13:15;;;;;;;;;;;22.10;31.20;;;;;;5084294;28;19924;-62
2022/02/11 06:15:45;;;;;;;;;;;22.10;31.20;;;;;;5072794;28;19970;-62
2022/02/11 06:21:34;;;;;;;;;;;22.10;31.20;;;;;;5087712;28;20018;-61
2022/02/11 06:24:01;;;;;;;;;;;22.20;31.30;;;;;;5086522;28;19924;-64
2022/02/11 06:26:29;;;;;;;;;;;22.20;31.30;;;;;;5087858;28;19935;-61
2022/02/11 06:28:56;;;;;;;;;;;22.30;31.30;;;;;;5088000;28;20027;-62
2022/02/11 06:31:23;;;;;;;;;;;22.30;31.20;;;;;;5109738;28;20538;-62
2022/02/11 06:40:01;;;;;;;;;;;22.50;31.20;;;;;;5091778;28;19924;-62
2022/02/11 06:42:29;;;;;;;;;;;22.60;31.10;;;;;;5084250;28;19963;-61
2022/02/11 06:44:56;;;;;;;;;;;22.70;31.00;;;;;;5089634;28;19994;-62
2022/02/11 06:47:23;;;;;;;;;;;22.70;31.00;;;;;;5092318;28;19967;-62
2022/02/11 06:49:52;;;;;;;;;;;22.80;30.90;;;;;;5092209;28;20375;-63
2022/02/11 06:52:19;;;;;;;;;;;22.90;30.80;;;;;;5084411;28;19968;-63
2022/02/11 06:54:46;;;;;;;;;;;22.90;30.70;;;;;;5090267;28;19924;-64
2022/02/11 06:57:13;;;;;;;;;;;23.00;30.60;;;;;;5091888;28;19925;-63
2022/02/11 06:59:40;;;;;;;;;;;23.10;30.50;;;;;;5074654;28;20372;-63
2022/02/11 07:02:15;;;;;;;;;;;23.20;30.40;;;;;;5089359;28;20009;-62
2022/02/11 07:04:43;;;;;;;;;;;23.20;30.30;;;;;;5089386;28;19982;-63
2022/02/11 07:07:10;;;;;;;;;;;23.30;30.20;;;;;;5090701;28;19924;-63
2022/02/11 07:09:37;;;;;;;;;;;23.40;30.20;;;;;;5090718;28;19924;-64
2022/02/11 07:12:04;;;;;;;;;;;23.50;30.10;;;;;;5091752;28;19924;-62
2022/02/11 07:14:31;;;;;;;;;;;23.50;30.00;;;;;;5089770;28;20078;-62
2022/02/11 07:16:58;;;;;;;;;;;23.60;30.20;;;;;;5091523;28;20365;-64
2022/02/11 07:19:25;;;;;;;;;;;23.60;30.30;;;;;;5091550;28;19924;-62
2022/02/11 07:21:53;;;;;;;;;;;23.60;30.70;;;;;;5091233;28;20015;-62
2022/02/11 07:24:20;;;;;;;;;;;23.70;30.80;;;;;;5087776;28;19963;-62
2022/02/11 07:26:47;;;;;;;;;;;23.70;30.90;;;;;;5089765;28;20058;-62
2022/02/11 07:29:15;;;;;;;;;;;23.70;31.10;;;;;;5071964;28;20377;-62
2022/02/11 07:31:43;;;;;;;;;;;23.60;31.20;;;;;;5090074;28;19924;-62
2022/02/11 07:34:10;;;;;;;;;;;23.70;31.40;;;;;;5085292;28;19932;-62
2022/02/11 07:36:37;;;;;;;;;;;23.70;31.40;;;;;;5079902;28;19975;-61
2022/02/11 07:39:05;;;;;;;;;;;23.70;31.30;;;;;;5084387;28;19942;-63
2022/02/11 07:41:33;;;;;;;;;;;23.70;31.50;;;;;;5081439;28;19971;-62
2022/02/11 07:44:00;;;;;;;;;;;23.70;31.50;;;;;;5083115;28;20429;-61
2022/02/11 07:46:28;;;;;;;;;;;23.70;31.50;;;;;;5083885;28;20328;-62
2022/02/11 07:49:01;;;;;;;;;;;23.80;31.60;;;;;;5082588;28;19924;-62
2022/02/11 07:51:28;;;;;;;;;;;23.80;31.40;;;;;;5072927;28;19932;-62
2022/02/11 07:53:55;;;;;;;;;;;23.80;31.50;;;;;;5075025;28;19928;-67
2022/02/11 07:56:22;;;;;;;;;;;23.80;31.50;;;;;;5084913;28;19924;-63
2022/02/11 07:58:51;;;;;;;;;;;23.70;31.30;;;;;;5083661;28;19963;-64
2022/02/11 08:01:20;;;;;;;;;;;23.80;31.20;;;;;;5078570;28;20393;-64
2022/02/11 08:03:48;;;;;;;;;;;23.80;31.10;;;;;;5082115;28;19952;-63
2022/02/11 08:06:15;;;;;;;;;;;23.70;31.00;;;;;;5081677;28;20037;-64
2022/02/11 08:08:42;;;;;;;;;;;23.70;30.90;;;;;;5082063;28;19947;-63
2022/02/11 08:11:09;;;;;;;;;;;23.80;30.90;;;;;;5083561;28;19950;-64
2022/02/11 08:13:39;;;;;;;;;;;23.80;30.80;;;;;;5084893;28;19967;-64
2022/02/11 08:16:09;;;;;;;;;;;23.70;30.70;;;;;;5083445;28;20188;-65
2022/02/11 08:18:37;;;;;;;;;;;23.70;30.60;;;;;;5088951;28;19982;-63
2022/02/11 08:21:13;;;;;;;;;;;23.70;30.60;;;;;;5087973;28;19924;-63
2022/02/11 08:23:40;;;;;;;;;;;23.70;30.50;;;;;;5087740;28;20351;-63
2022/02/11 08:26:07;;;;;;;;;;;23.70;30.50;;;;;;5087094;28;19924;-64
2022/02/11 08:28:38;;;;;;;;;;;23.70;30.50;;;;;;5085505;28;19924;-63
2022/02/11 08:31:05;;;;;;;;;;;23.70;30.40;;;;;;5090177;28;20354;-63
2022/02/11 08:33:32;;;;;;;;;;;23.70;30.40;;;;;;5090119;28;20023;-64
2022/02/11 08:36:00;;;;;;;;;;;23.70;30.50;;;;;;5088406;28;20034;-61
2022/02/11 08:42:20;;;;;;;;;;;23.70;30.70;;;;;;5089463;28;19939;-63
2022/02/11 08:44:47;;;;;;;;;;;23.60;31.00;;;;;;5087298;28;20355;-62
2022/02/11 08:47:14;;;;;;;;;;;23.70;31.30;;;;;;5083956;28;20023;-63
2022/02/11 08:49:42;;;;;;;;;;;23.70;31.50;;;;;;5086745;28;19972;-62
2022/02/11 08:52:09;;;;;;;;;;;23.70;31.60;;;;;;5090227;28;20011;-63
2022/02/11 08:54:36;;;;;;;;;;;23.70;31.60;;;;;;5090569;28;19993;-61
2022/02/11 08:57:03;;;;;;;;;;;23.70;31.70;;;;;;5087734;28;19992;-64
2022/02/11 08:59:30;;;;;;;;;;;23.70;31.60;;;;;;5084501;28;20206;-64
2022/02/11 09:01:56;;;;;;;;;;;23.80;31.50;;;;;;5086105;28;20412;-64
2022/02/11 09:04:23;;;;;;;;;;;23.80;31.30;;;;;;5086388;28;20036;-64
2022/02/11 09:06:51;;;;;;;;;;;23.70;31.10;;;;;;5085840;28;20431;-64
2022/02/11 09:09:18;;;;;;;;;;;23.70;31.00;;;;;;5086129;28;19934;-64
2022/02/11 09:11:45;;;;;;;;;;;23.80;30.90;;;;;;5089503;28;19978;-64
2022/02/11 09:14:12;;;;;;;;;;;23.80;30.90;;;;;;5089232;28;20325;-63
2022/02/11 09:16:39;;;;;;;;;;;23.80;30.80;;;;;;5089203;28;20361;-65
2022/02/11 09:19:09;;;;;;;;;;;23.80;30.70;;;;;;5084667;28;19924;-65
2022/02/11 09:21:37;;;;;;;;;;;23.90;30.70;;;;;;5088240;28;20389;-66
2022/02/11 09:24:04;;;;;;;;;;;23.90;30.70;;;;;;5088370;28;19924;-63
2022/02/11 09:26:33;;;;;;;;;;;23.90;30.90;;;;;;5087724;28;19977;-63
2022/02/11 09:29:01;;;;;;;;;;;23.90;30.90;;;;;;5084791;28;19928;-64
2022/02/11 09:31:28;;;;;;;;;;;24.00;31.10;;;;;;5088965;28;20354;-64
2022/02/11 09:33:55;;;;;;;;;;;24.10;31.10;;;;;;5093271;28;20330;-64
2022/02/11 09:36:23;;;;;;;;;;;24.10;31.00;;;;;;5094031;28;20007;-64
2022/02/11 09:38:49;;;;;;;;;;;24.10;30.80;;;;;;5091712;28;19963;-64
2022/02/11 09:41:16;;;;;;;;;;;24.10;30.70;;;;;;5075991;28;19924;-64
2022/02/11 09:43:45;;;;;;;;;;;24.10;30.60;;;;;;5093234;28;19924;-64
2022/02/11 09:46:13;;;;;;;;;;;24.10;30.40;;;;;;5093359;28;20304;-64
2022/02/11 09:48:39;;;;;;;;;;;24.10;30.40;;;;;;5089968;28;19969;-64
2022/02/11 09:51:05;;;;;;;;;;;24.20;30.40;;;;;;5093860;28;19916;-64
2022/02/11 09:53:32;;;;;;;;;;;24.20;30.30;;;;;;5092395;28;19924;-63
2022/02/11 09:55:59;;;;;;;;;;;24.20;30.20;;;;;;5087872;28;19982;-64
2022/02/11 09:58:26;;;;;;;;;;;24.30;30.10;;;;;;5090803;28;19977;-64
2022/02/11 10:00:53;;;;;;;;;;;24.30;30.10;;;;;;5093108;28;20373;-64
2022/02/11 10:03:21;;;;;;;;;;;24.30;30.10;;;;;;5093440;28;19912;-64
2022/02/11 10:05:57;;;;;;;;;;;24.30;30.00;;;;;;5092883;28;19981;-63
2022/02/11 10:08:25;;;;;;;;;;;24.30;30.00;;;;;;5092798;28;19963;-64
2022/02/11 10:10:54;;;;;;;;;;;24.30;30.00;;;;;;5074815;28;20011;-64
2022/02/11 10:13:25;;;;;;;;;;;24.30;30.00;;;;;;5092629;28;19924;-63
2022/02/11 10:15:55;;;;;;;;;;;24.30;30.00;;;;;;5092509;28;19924;-64
2022/02/11 10:18:26;;;;;;;;;;;24.30;30.00;;;;;;5106441;28;19924;-62
2022/02/11 10:20:53;;;;;;;;;;;24.30;30.00;;;;;;5092599;28;19920;-64
2022/02/11 10:23:25;;;;;;;;;;;24.30;30.30;;;;;;5092404;28;19924;-64
2022/02/11 10:26:10;;;;;;;;;;;24.30;30.10;;;;;;5074771;28;19964;-64
2022/02/11 10:28:39;;;;;;;;;;;24.30;30.10;;;;;;5089836;28;19931;-64
2022/02/11 10:31:14;;;;;;;;;;;24.30;30.10;;;;;;5092784;28;20022;-60
2022/02/11 10:33:52;;;;;;;;;;;24.30;30.50;;;;;;5091969;28;19924;-64
2022/02/11 10:36:20;;;;;;;;;;;24.30;31.20;;;;;;5090744;28;20014;-62
2022/02/11 10:39:11;;;;;;;;;;;24.30;31.50;;;;;;5074183;28;19924;-63
2022/02/11 10:41:49;;;;;;;;;;;24.30;31.90;;;;;;5086696;28;20374;-63
2022/02/11 10:44:18;;;;;;;;;;;24.30;32.00;;;;;;5099168;28;19977;-62
2022/02/11 10:46:51;;;;;;;;;;;24.40;32.10;;;;;;5085941;28;19930;-63
2022/02/11 10:49:29;;;;;;;;;;;24.50;32.20;;;;;;5086476;28;19981;-63
2022/02/11 10:52:07;;;;;;;;;;;24.50;32.10;;;;;;5082364;28;19928;-65
2022/02/11 10:54:34;;;;;;;;;;;24.50;32.00;;;;;;5088150;28;20412;-65
2022/02/11 10:57:02;;;;;;;;;;;24.50;31.70;;;;;;5086102;28;20474;-63
2022/02/11 10:59:31;;;;;;;;;;;24.50;31.80;;;;;;5085855;28;20408;-63
2022/02/11 11:01:59;;;;;;;;;;;24.60;32.10;;;;;;5083069;28;20442;-64
2022/02/11 11:04:27;;;;;;;;;;;24.60;32.10;;;;;;5086203;28;19986;-67
2022/02/11 11:06:55;;;;;;;;;;;24.60;32.00;;;;;;5079778;28;19932;-65
2022/02/11 11:09:25;;;;;;;;;;;24.70;32.00;;;;;;5085324;28;20285;-68
2022/02/11 11:11:57;;;;;;;;;;;24.70;32.00;;;;;;5083805;28;19982;-66
2022/02/11 11:14:24;;;;;;;;;;;24.70;31.90;;;;;;5088059;28;19975;-66
2022/02/11 11:16:53;;;;;;;;;;;24.70;31.70;;;;;;5086542;28;19977;-66
2022/02/11 11:19:20;;;;;;;;;;;24.80;31.70;;;;;;5063105;28;19981;-65
2022/02/11 11:22:10;;;;;;;;;;;24.80;31.70;;;;;;5085866;28;19924;-68
2022/02/11 11:24:44;;;;;;;;;;;24.80;31.70;;;;;;5085927;28;20315;-67
2022/02/11 11:27:11;;;;;;;;;;;24.80;31.60;;;;;;5089761;28;19989;-66
2022/02/11 11:33:21;;;;;;;;;;;24.80;31.50;;;;;;5082666;28;20491;-65
2022/02/11 11:36:06;;;;;;;;;;;24.80;31.40;;;;;;5084415;28;19925;-68
2022/02/11 11:38:39;;;;;;;;;;;24.80;31.40;;;;;;5071453;28;19975;-67
2022/02/11 11:41:08;;;;;;;;;;;24.80;31.50;;;;;;5071590;28;19924;-65
2022/02/11 11:43:37;;;;;;;;;;;24.80;31.50;;;;;;5082701;28;19925;-64
2022/02/11 11:46:04;;;;;;;;;;;24.80;31.50;;;;;;5090643;28;19923;-63
2022/02/11 11:52:02;;;;;;;;;;;24.80;31.50;;;;;;5066185;28;19919;-64
2022/02/11 11:54:29;;;;;;;;;;;24.80;31.60;;;;;;5087412;28;19938;-64
2022/02/11 11:57:00;;;;;;;;;;;24.90;31.70;;;;;;5091320;28;19925;-63
2022/02/11 11:59:40;;;;;;;;;;;24.90;31.70;;;;;;5091201;28;19924;-63
2022/02/11 12:02:16;;;;;;;;;;;24.90;31.80;;;;;;5088169;28;19976;-65
2022/02/11 12:04:48;;;;;;;;;;;24.90;31.90;;;;;;5089173;28;19931;-70
2022/02/11 12:07:17;;;;;;;;;;;24.90;31.90;;;;;;5091385;28;20399;-64
2022/02/11 12:09:47;;;;;;;;;;;24.90;32.00;;;;;;5090884;28;20415;-63
2022/02/11 12:12:16;;;;;;;;;;;24.90;31.90;;;;;;5087120;28;19950;-65
2022/02/11 12:14:43;;;;;;;;;;;25.00;29.90;;;;;;5086147;28;20015;-65
2022/02/11 12:17:12;;;;;;;;;;;24.90;29.80;;;;;;5090160;28;19946;-67
2022/02/11 12:19:40;;;;;;;;;;;24.90;29.50;;;;;;5091317;28;20006;-67
2022/02/11 12:22:07;;;;;;;;;;;24.90;29.90;;;;;;5088177;28;19969;-65
2022/02/11 12:27:24;;;;;;;;;;;24.90;29.90;;;;;;5109788;28;19924;-64
2022/02/11 12:29:53;;;;;;;;;;;24.90;30.10;;;;;;5110775;28;20389;-65
2022/02/11 12:32:25;;;;;;;;;;;24.90;30.40;;;;;;5106557;28;19924;-67
2022/02/11 12:34:53;;;;;;;;;;;24.90;30.30;;;;;;5088130;28;20061;-65
2022/02/11 12:37:22;;;;;;;;;;;25.00;30.30;;;;;;5088971;28;19927;-64
2022/02/11 12:43:25;;;;;;;;;;;25.10;30.30;;;;;;5072479;28;19956;-64
2022/02/11 12:45:52;;;;;;;;;;;25.10;30.30;;;;;;5090751;28;19993;-65
2022/02/11 12:48:28;;;;;;;;;;;25.20;30.30;;;;;;5089762;28;20389;-63
2022/02/11 12:50:55;;;;;;;;;;;25.20;30.30;;;;;;5089427;28;19932;-65
2022/02/11 12:53:23;;;;;;;;;;;25.20;30.40;;;;;;5105024;28;20373;-64
2022/02/11 12:55:50;;;;;;;;;;;25.30;30.40;;;;;;5084730;28;19977;-66
2022/02/11 12:58:19;;;;;;;;;;;25.20;30.30;;;;;;5083774;28;19967;-65
2022/02/11 13:00:48;;;;;;;;;;;25.30;30.40;;;;;;5083780;28;20373;-65
2022/02/11 13:03:17;;;;;;;;;;;25.30;30.50;;;;;;5082690;28;19994;-66
2022/02/11 13:05:46;;;;;;;;;;;25.30;30.50;;;;;;5085228;28;19956;-66
2022/02/11 13:08:23;;;;;;;;;;;25.30;30.40;;;;;;5088211;28;20348;-66
2022/02/11 13:11:06;;;;;;;;;;;25.30;30.20;;;;;;5080586;28;20443;-66
2022/02/11 13:13:35;;;;;;;;;;;25.30;30.20;;;;;;5084643;28;19989;-66
2022/02/11 13:16:05;;;;;;;;;;;25.30;30.10;;;;;;5083348;28;19924;-66
2022/02/11 13:18:35;;;;;;;;;;;25.30;30.00;;;;;;5084448;28;19985;-66
2022/02/11 13:21:04;;;;;;;;;;;25.20;30.00;;;;;;5085245;28;19963;-66
2022/02/11 13:23:32;;;;;;;;;;;25.20;30.00;;;;;;5097744;28;19963;-66
2022/02/11 13:25:59;;;;;;;;;;;25.20;30.00;;;;;;5087511;28;19971;-67
2022/02/11 13:28:30;;;;;;;;;;;25.20;30.00;;;;;;5089503;28;19986;-66
2022/02/11 13:30:58;;;;;;;;;;;25.10;30.00;;;;;;5085117;28;19928;-65
2022/02/11 13:33:29;;;;;;;;;;;25.10;29.90;;;;;;5083756;28;20454;-66
2022/02/11 13:35:58;;;;;;;;;;;25.10;29.90;;;;;;5085015;28;19977;-66
2022/02/11 13:38:26;;;;;;;;;;;25.10;29.80;;;;;;5092184;28;19924;-66
2022/02/11 13:40:55;;;;;;;;;;;25.10;29.80;;;;;;5084643;28;20007;-66
2022/02/11 13:43:22;;;;;;;;;;;25.10;29.80;;;;;;5087332;28;20284;-65
2022/02/11 13:45:58;;;;;;;;;;;25.10;29.90;;;;;;5086439;28;19970;-66
2022/02/11 13:48:25;;;;;;;;;;;25.10;29.90;;;;;;5068915;28;20055;-66
2022/02/11 13:50:57;;;;;;;;;;;25.10;29.90;;;;;;5090537;28;20050;-64
2022/02/11 13:53:44;;;;;;;;;;;25.10;29.90;;;;;;5093197;28;19986;-65
2022/02/11 13:56:14;;;;;;;;;;;25.00;29.70;;;;;;5080379;28;19924;-65
2022/02/11 13:59:01;;;;;;;;;;;25.10;29.90;;;;;;5081163;28;20022;-65
2022/02/11 14:01:29;;;;;;;;;;;25.00;30.00;;;;;;5085195;28;19924;-65
2022/02/11 14:04:06;;;;;;;;;;;25.00;30.10;;;;;;5106630;28;19953;-64
2022/02/11 14:06:36;;;;;;;;;;;25.00;30.20;;;;;;5073282;28;19985;-65
2022/02/11 14:09:04;;;;;;;;;;;25.00;30.10;;;;;;5092532;28;19924;-65
2022/02/11 14:11:35;;;;;;;;;;;24.90;30.10;;;;;;5087787;28;19974;-65
2022/02/11 14:14:12;;;;;;;;;;;24.90;30.10;;;;;;5084049;28;20014;-65
2022/02/11 14:16:39;;;;;;;;;;;24.90;30.10;;;;;;5086666;28;19932;-65
2022/02/11 14:19:07;;;;;;;;;;;24.90;30.20;;;;;;5087427;28;19924;-65
2022/02/11 14:21:34;;;;;;;;;;;24.90;30.20;;;;;;5090501;28;20003;-65
2022/02/11 14:24:01;;;;;;;;;;;24.90;30.20;;;;;;5090864;28;19982;-65
2022/02/11 14:26:30;;;;;;;;;;;24.90;30.20;;;;;;5083535;28;20014;-65
2022/02/11 14:28:57;;;;;;;;;;;24.90;30.20;;;;;;5105886;28;19959;-65
2022/02/11 14:31:25;;;;;;;;;;;24.80;30.10;;;;;;5089927;28;20010;-65
2022/02/11 14:33:52;;;;;;;;;;;24.80;30.00;;;;;;5089918;28;19928;-65
2022/02/11 14:36:19;;;;;;;;;;;24.80;30.00;;;;;;5089847;28;19967;-65
2022/02/11 14:38:46;;;;;;;;;;;24.80;29.90;;;;;;5088308;28;19924;-64
2022/02/11 14:44:00;;;;;;;;;;;24.70;29.80;;;;;;5083466;28;19943;-63
2022/02/11 14:46:28;;;;;;;;;;;24.70;29.80;;;;;;5091566;28;20472;-64
2022/02/11 14:48:55;;;;;;;;;;;24.70;29.80;;;;;;5097507;28;19982;-65
2022/02/11 14:51:22;;;;;;;;;;;24.70;29.90;;;;;;5091981;28;20019;-66
2022/02/11 14:53:49;;;;;;;;;;;24.60;29.80;;;;;;5091099;28;20011;-66
2022/02/11 14:56:16;;;;;;;;;;;24.60;29.80;;;;;;5091669;28;20023;-67
2022/02/11 14:58:43;;;;;;;;;;;24.60;29.90;;;;;;5090872;28;20360;-67
2022/02/11 15:01:10;;;;;;;;;;;24.50;29.90;;;;;;5091962;28;19963;-66
2022/02/11 15:06:46;;;;;;;;;;;24.40;30.00;;;;;;5089773;28;20463;-67
2022/02/11 15:09:13;;;;;;;;;;;24.30;30.10;;;;;;5091258;28;19969;-66
2022/02/11 15:11:41;;;;;;;;;;;24.30;30.10;;;;;;5090988;28;19924;-67
2022/02/11 15:14:09;;;;;;;;;;;24.20;30.30;;;;;;5104163;28;19924;-67
2022/02/11 15:16:37;;;;;;;;;;;24.20;30.40;;;;;;5096105;28;20120;-67
2022/02/11 15:19:06;;;;;;;;;;;24.10;30.50;;;;;;5091108;28;19924;-66
2022/02/11 15:21:33;;;;;;;;;;;24.10;30.60;;;;;;5092648;28;19924;-67
2022/02/11 15:24:01;;;;;;;;;;;24.10;30.70;;;;;;5102109;28;20050;-67
2022/02/11 15:26:28;;;;;;;;;;;24.00;30.70;;;;;;5087414;28;19955;-67
2022/02/11 15:28:55;;;;;;;;;;;24.00;30.80;;;;;;5088834;28;19971;-67
2022/02/11 15:31:23;;;;;;;;;;;23.90;30.90;;;;;;5087564;28;19971;-67
2022/02/11 15:33:51;;;;;;;;;;;23.90;30.90;;;;;;5087469;28;20072;-64
2022/02/11 15:36:18;;;;;;;;;;;23.90;30.80;;;;;;5086933;28;19924;-66
2022/02/11 15:41:50;;;;;;;;;;;23.80;30.80;;;;;;5089073;28;19928;-66
2022/02/11 15:44:17;;;;;;;;;;;23.80;30.70;;;;;;5088703;28;19970;-66
2022/02/11 15:46:44;;;;;;;;;;;23.80;31.20;;;;;;5089063;28;20019;-66
2022/02/11 15:49:11;;;;;;;;;;;23.80;30.40;;;;;;5090800;28;20022;-66
2022/02/11 15:51:39;;;;;;;;;;;23.70;30.30;;;;;;5094094;28;19924;-66
2022/02/11 15:54:06;;;;;;;;;;;23.70;30.10;;;;;;5110972;28;20369;-66
2022/02/11 15:56:33;;;;;;;;;;;23.70;30.00;;;;;;5089481;28;19924;-66
2022/02/11 15:59:02;;;;;;;;;;;23.60;30.00;;;;;;5090279;28;19963;-66
2022/02/11 16:01:29;;;;;;;;;;;23.60;29.90;;;;;;5090326;28;20011;-67
2022/02/11 16:04:14;;;;;;;;;;;23.60;29.90;;;;;;5088386;28;19924;-66
2022/02/11 16:06:41;;;;;;;;;;;23.50;29.90;;;;;;5088805;28;20011;-65
2022/02/11 16:09:08;;;;;;;;;;;23.50;29.80;;;;;;5068505;28;19946;-65
2022/02/11 16:11:37;;;;;;;;;;;23.50;29.80;;;;;;5087058;28;19967;-64
2022/02/11 16:14:05;;;;;;;;;;;23.50;29.70;;;;;;5087464;28;20089;-65
2022/02/11 16:16:33;;;;;;;;;;;23.50;29.60;;;;;;5084064;28;19967;-65
2022/02/11 16:19:00;;;;;;;;;;;23.50;29.50;;;;;;5082929;28;19946;-63
2022/02/11 16:21:27;;;;;;;;;;;23.50;29.50;;;;;;5068579;28;19975;-64
2022/02/11 16:23:54;;;;;;;;;;;23.50;29.40;;;;;;5088259;28;20043;-63
2022/02/11 16:26:21;;;;;;;;;;;23.50;29.40;;;;;;5087301;28;19979;-62
2022/02/11 16:31:39;;;;;;;;;;;23.50;29.40;;;;;;5087071;28;20019;-62
2022/02/11 16:34:06;;;;;;;;;;;23.40;29.40;;;;;;5088347;28;19969;-62
2022/02/11 16:36:36;;;;;;;;;;;23.40;29.30;;;;;;5087132;28;20104;-63
2022/02/11 16:39:03;;;;;;;;;;;23.40;29.30;;;;;;5088526;28;20300;-62
2022/02/11 16:41:31;;;;;;;;;;;23.40;29.30;;;;;;5101397;28;19924;-63
2022/02/11 16:43:58;;;;;;;;;;;23.30;29.20;;;;;;5088212;28;20333;-62
2022/02/11 16:46:25;;;;;;;;;;;23.30;29.20;;;;;;5086845;28;20457;-62
2022/02/11 16:48:52;;;;;;;;;;;23.30;29.20;;;;;;5088000;28;19978;-62
2022/02/11 16:51:19;;;;;;;;;;;23.30;29.20;;;;;;5068818;28;19993;-62
2022/02/11 16:54:19;;;;;;;;;;;23.30;29.10;;;;;;5087826;28;20420;-63
2022/02/11 16:56:47;;;;;;;;;;;23.20;29.00;;;;;;5086587;28;19975;-62
2022/02/11 16:59:15;;;;;;;;;;;23.20;29.00;;;;;;5088109;28;19930;-63
2022/02/11 17:01:42;;;;;;;;;;;23.20;29.00;;;;;;5086585;28;19931;-62
2022/02/11 17:04:09;;;;;;;;;;;23.20;29.00;;;;;;5087934;28;19924;-62
2022/02/11 17:06:37;;;;;;;;;;;23.20;29.10;;;;;;5086113;28;19931;-63
2022/02/11 17:09:04;;;;;;;;;;;23.20;29.20;;;;;;5087750;28;20385;-62
2022/02/11 17:11:32;;;;;;;;;;;23.20;29.20;;;;;;5086489;28;20042;-62
2022/02/11 17:13:59;;;;;;;;;;;23.20;29.80;;;;;;5069607;28;19974;-62
2022/02/11 17:16:29;;;;;;;;;;;23.20;29.30;;;;;;5086015;28;19924;-62
2022/02/11 17:19:14;;;;;;;;;;;23.20;29.40;;;;;;5069621;28;19982;-62
2022/02/11 17:21:41;;;;;;;;;;;23.20;29.40;;;;;;5101618;28;19975;-62
2022/02/11 17:24:14;;;;;;;;;;;23.20;29.50;;;;;;5069626;28;19928;-61
2022/02/11 17:26:42;;;;;;;;;;;23.20;29.50;;;;;;5085782;28;20027;-61
2022/02/11 17:29:10;;;;;;;;;;;23.20;29.50;;;;;;5087420;28;19983;-62
2022/02/11 17:31:37;;;;;;;;;;;23.20;29.60;;;;;;5085982;28;20404;-61
2022/02/11 17:34:04;;;;;;;;;;;23.20;29.60;;;;;;5087817;28;19999;-61
2022/02/11 17:36:34;;;;;;;;;;;23.20;29.70;;;;;;5086226;28;20019;-61
2022/02/11 17:39:03;;;;;;;;;;;23.20;29.70;;;;;;5087920;28;20296;-61
2022/02/11 17:41:29;;;;;;;;;;;23.20;29.70;;;;;;5085878;28;20007;-61
2022/02/11 17:43:57;;;;;;;;;;;23.10;29.70;;;;;;5087545;28;19924;-62
2022/02/11 17:46:26;;;;;;;;;;;23.20;29.70;;;;;;5085595;28;19939;-61
2022/02/11 17:48:53;;;;;;;;;;;23.10;29.70;;;;;;5087268;28;19985;-62
2022/02/11 17:51:20;;;;;;;;;;;23.10;29.70;;;;;;5085695;28;20389;-61
2022/02/11 17:56:41;;;;;;;;;;;23.10;29.80;;;;;;5089558;28;19982;-61
2022/02/11 17:59:12;;;;;;;;;;;23.10;29.80;;;;;;5091155;28;19924;-62
2022/02/11 18:01:39;;;;;;;;;;;23.10;29.90;;;;;;5089876;28;19931;-61
2022/02/11 18:04:06;;;;;;;;;;;23.10;29.90;;;;;;5091497;28;19924;-61
2022/02/11 18:06:34;;;;;;;;;;;23.00;29.90;;;;;;5089370;28;19924;-61
2022/02/11 18:09:02;;;;;;;;;;;23.00;29.90;;;;;;5090880;28;19955;-61
2022/02/11 18:11:30;;;;;;;;;;;23.00;29.90;;;;;;5105174;28;19924;-62
2022/02/11 18:13:58;;;;;;;;;;;23.00;29.90;;;;;;5090905;28;19928;-61
2022/02/11 18:16:25;;;;;;;;;;;23.00;29.90;;;;;;5089600;28;19970;-61
2022/02/11 18:21:40;;;;;;;;;;;23.00;30.00;;;;;;5089066;28;20175;-61
2022/02/11 18:24:07;;;;;;;;;;;23.00;30.00;;;;;;5073220;28;20015;-61
2022/02/11 18:26:34;;;;;;;;;;;23.00;30.00;;;;;;5089157;28;20022;-61
2022/02/11 18:29:03;;;;;;;;;;;23.00;30.00;;;;;;5090408;28;19982;-61